createdAt,value
2018-05-10T00:00:29.752Z,85.80
2018-05-10T00:02:58.033Z,86.20
2018-05-10T00:05:26.525Z,84.80
2018-05-10T00:07:54.966Z,84.40
2018-05-10T00:10:24.757Z,86.10
2018-05-10T00:12:53.913Z,86.30
2018-05-10T00:15:22.204Z,86.30
2018-05-10T00:17:50.481Z,86.70
2018-05-10T00:20:18.825Z,86.60
2018-05-10T00:22:47.411Z,85.90
2018-05-10T00:25:15.699Z,85.50
2018-05-10T00:27:44.037Z,85.70
2018-05-10T00:30:12.388Z,87.40
2018-05-10T00:32:40.677Z,88.40
2018-05-10T00:35:09.069Z,88.30
2018-05-10T00:37:37.404Z,88.40
2018-05-10T00:40:05.692Z,88.30
2018-05-10T00:42:34.030Z,88.00
2018-05-10T00:45:02.310Z,87.60
2018-05-10T00:47:30.641Z,87.30
2018-05-10T00:49:59.739Z,86.00
2018-05-10T00:52:28.017Z,85.90
2018-05-10T00:54:58.784Z,85.10
2018-05-10T00:57:27.897Z,84.40
2018-05-10T00:59:57.009Z,84.20
2018-05-10T01:02:26.074Z,84.10
2018-05-10T01:04:54.367Z,84.10
2018-05-10T01:07:22.689Z,84.90
2018-05-10T01:09:51.785Z,84.00
2018-05-10T01:12:20.161Z,84.00
2018-05-10T01:14:48.501Z,84.00
2018-05-10T01:17:16.792Z,83.20
2018-05-10T01:19:45.757Z,83.90
2018-05-10T01:22:14.038Z,84.80
2018-05-10T01:24:42.327Z,86.00
2018-05-10T01:27:12.185Z,85.40
2018-05-10T01:29:41.236Z,84.60
2018-05-10T01:32:09.565Z,84.60
2018-05-10T01:34:37.897Z,84.00
2018-05-10T01:37:06.179Z,84.60
2018-05-10T01:39:34.516Z,83.10
2018-05-10T01:42:02.908Z,82.70
2018-05-10T01:44:31.296Z,81.40
2018-05-10T01:46:59.685Z,81.40
2018-05-10T01:49:28.016Z,82.30
2018-05-10T01:51:57.074Z,81.80
2018-05-10T01:54:25.397Z,81.80
2018-05-10T01:56:53.676Z,80.60
2018-05-10T01:59:23.582Z,80.00
2018-05-10T02:01:51.865Z,79.90
2018-05-10T02:04:20.144Z,80.40
2018-05-10T02:06:48.721Z,80.10
2018-05-10T02:09:17.014Z,80.60
2018-05-10T02:11:45.293Z,80.50
2018-05-10T02:14:13.625Z,81.10
2018-05-10T02:16:41.901Z,81.00
2018-05-10T02:19:10.237Z,81.70
2018-05-10T02:21:39.290Z,81.60
2018-05-10T02:24:07.629Z,81.60
2018-05-10T02:26:35.913Z,81.80
2018-05-10T02:29:04.196Z,81.40
2018-05-10T02:31:34.033Z,81.70
2018-05-10T02:34:03.081Z,81.90
2018-05-10T02:36:31.750Z,81.90
2018-05-10T02:38:59.984Z,81.70
2018-05-10T02:41:28.270Z,81.50
2018-05-10T02:43:56.796Z,80.80
2018-05-10T02:46:25.844Z,81.20
2018-05-10T02:48:54.129Z,81.30
2018-05-10T02:51:22.456Z,82.10
2018-05-10T02:53:50.785Z,82.10
2018-05-10T02:56:19.065Z,81.80
2018-05-10T02:58:47.397Z,82.10
2018-05-10T03:01:15.686Z,82.00
2018-05-10T03:03:43.965Z,82.20
2018-05-10T03:06:13.053Z,82.30
2018-05-10T03:08:42.140Z,82.30
2018-05-10T03:11:10.467Z,82.30
2018-05-10T03:13:39.509Z,82.30
2018-05-10T03:16:07.801Z,82.30
2018-05-10T03:18:36.133Z,82.40
2018-05-10T03:21:04.417Z,82.50
2018-05-10T03:23:32.753Z,83.30
2018-05-10T03:26:01.036Z,83.00
2018-05-10T03:28:29.375Z,83.40
2018-05-10T03:30:57.757Z,84.20
2018-05-10T03:33:26.093Z,84.10
2018-05-10T03:35:54.377Z,83.10
2018-05-10T03:38:23.549Z,83.10
2018-05-10T03:40:51.877Z,83.10
2018-05-10T03:43:21.363Z,82.70
2018-05-10T03:45:49.641Z,82.60
2018-05-10T03:48:17.937Z,82.30
2018-05-10T03:50:47.780Z,82.20
2018-05-10T03:53:16.109Z,82.20
2018-05-10T03:55:44.389Z,82.00
2018-05-10T03:58:13.040Z,81.90
2018-05-10T04:00:41.522Z,82.10
2018-05-10T04:06:20.609Z,79.70
2018-05-10T04:09:00.877Z,79.50
2018-05-10T04:11:29.159Z,79.80
2018-05-10T04:13:57.871Z,79.40
2018-05-10T04:16:26.152Z,79.30
2018-05-10T04:18:54.433Z,79.00
2018-05-10T04:21:22.769Z,78.70
2018-05-10T04:23:51.816Z,78.10
2018-05-10T04:26:20.152Z,78.10
2018-05-10T04:28:48.484Z,78.30
2018-05-10T04:31:16.769Z,78.40
2018-05-10T04:33:45.412Z,78.60
2018-05-10T04:36:13.685Z,78.70
2018-05-10T04:38:41.968Z,78.50
2018-05-10T04:41:10.372Z,77.70
2018-05-10T04:43:38.710Z,77.70
2018-05-10T04:46:07.011Z,77.10
2018-05-10T04:48:35.288Z,77.00
2018-05-10T04:51:03.621Z,76.30
2018-05-10T04:53:31.944Z,76.70
2018-05-10T04:56:00.269Z,76.40
2018-05-10T04:58:28.675Z,77.10
2018-05-10T05:00:57.013Z,77.20
2018-05-10T05:03:25.370Z,79.20
2018-05-10T05:05:54.389Z,78.50
2018-05-10T05:08:22.795Z,77.60
2018-05-10T05:10:51.028Z,77.60
2018-05-10T05:13:19.352Z,76.40
2018-05-10T05:15:47.638Z,75.80
2018-05-10T05:18:15.965Z,76.80
2018-05-10T05:20:45.064Z,77.60
2018-05-10T05:23:13.398Z,77.60
2018-05-10T05:25:41.673Z,77.00
2018-05-10T05:28:10.006Z,77.70
2018-05-10T05:30:38.333Z,75.90
2018-05-10T05:33:07.429Z,77.70
2018-05-10T05:35:35.830Z,77.70
2018-05-10T05:38:04.065Z,78.30
2018-05-10T05:40:32.683Z,77.40
2018-05-10T05:43:00.964Z,78.30
2018-05-10T05:45:29.265Z,77.90
2018-05-10T05:47:57.676Z,77.80
2018-05-10T05:50:25.958Z,77.40
2018-05-10T05:52:54.337Z,77.60
2018-05-10T05:55:22.627Z,78.30
2018-05-10T05:57:50.914Z,78.80
2018-05-10T06:00:19.244Z,77.00
2018-05-10T06:02:48.297Z,76.50
2018-05-10T06:05:16.585Z,76.50
2018-05-10T06:07:44.921Z,76.40
2018-05-10T06:10:13.969Z,77.50
2018-05-10T06:12:42.251Z,77.50
2018-05-10T06:15:10.585Z,77.50
2018-05-10T06:17:38.877Z,76.00
2018-05-10T06:20:07.574Z,77.50
2018-05-10T06:22:35.861Z,76.30
2018-05-10T06:25:04.448Z,75.80
2018-05-10T06:27:32.691Z,76.30
2018-05-10T06:30:01.152Z,77.10
2018-05-10T06:32:29.432Z,75.30
2018-05-10T06:34:57.761Z,75.70
2018-05-10T06:37:26.093Z,75.70
2018-05-10T06:39:54.399Z,74.70
2018-05-10T06:42:22.682Z,75.40
2018-05-10T06:44:51.017Z,75.20
2018-05-10T06:47:19.301Z,75.20
2018-05-10T06:49:47.589Z,74.90
2018-05-10T06:52:16.954Z,75.10
2018-05-10T06:54:45.449Z,75.10
2018-05-10T06:57:13.645Z,74.70
2018-05-10T06:59:42.037Z,73.50
2018-05-10T07:02:10.521Z,72.60
2018-05-10T07:04:38.806Z,72.20
2018-05-10T07:07:07.157Z,71.70
2018-05-10T07:09:35.655Z,72.00
2018-05-10T07:12:03.985Z,71.40
2018-05-10T07:14:32.267Z,66.90
2018-05-10T07:17:00.564Z,67.70
2018-05-10T07:19:28.897Z,68.40
2018-05-10T07:21:57.188Z,68.20
2018-05-10T07:24:25.523Z,68.50
2018-05-10T07:26:53.810Z,68.80
2018-05-10T07:29:22.224Z,67.70
2018-05-10T07:31:50.508Z,68.80
2018-05-10T07:34:18.921Z,67.10
2018-05-10T07:36:47.992Z,66.80
2018-05-10T07:39:16.273Z,66.80
2018-05-10T07:41:44.997Z,66.70
2018-05-10T07:44:13.285Z,66.20
2018-05-10T07:46:41.576Z,63.80
2018-05-10T07:49:09.914Z,61.40
2018-05-10T07:51:38.262Z,60.30
2018-05-10T07:54:06.602Z,60.10
2018-05-10T07:56:34.940Z,60.10
2018-05-10T07:59:03.273Z,61.10
2018-05-10T08:01:31.560Z,62.20
2018-05-10T08:04:00.653Z,62.40
2018-05-10T08:06:29.760Z,58.30
2018-05-10T08:08:58.848Z,59.60
2018-05-10T08:11:27.180Z,59.30
2018-05-10T08:13:55.460Z,59.90
2018-05-10T08:16:24.566Z,58.10
2018-05-10T08:18:53.661Z,58.80
2018-05-10T08:21:30.701Z,58.80
2018-05-10T08:23:59.037Z,58.10
2018-05-10T08:26:28.821Z,58.10
2018-05-10T08:28:57.101Z,58.10
2018-05-10T08:31:25.537Z,57.40
2018-05-10T08:33:53.865Z,57.80
2018-05-10T08:36:22.960Z,56.50
2018-05-10T08:38:52.009Z,57.20
2018-05-10T08:41:20.343Z,57.10
2018-05-10T08:43:48.723Z,58.80
2018-05-10T08:46:17.055Z,57.30
2018-05-10T08:48:45.341Z,58.30
2018-05-10T08:51:13.670Z,58.50
2018-05-10T08:53:42.012Z,57.60
2018-05-10T08:56:11.089Z,58.90
2018-05-10T08:58:39.481Z,58.80
2018-05-10T09:01:07.773Z,57.20
2018-05-10T09:03:36.155Z,56.60
2018-05-10T09:06:04.538Z,55.50
2018-05-10T09:08:32.877Z,56.70
2018-05-10T09:11:01.992Z,55.30
2018-05-10T09:13:31.053Z,56.10
2018-05-10T09:15:59.348Z,56.20
2018-05-10T09:18:27.741Z,55.30
2018-05-10T09:20:56.033Z,53.70
2018-05-10T09:23:26.164Z,53.60
2018-05-10T09:25:54.465Z,53.60
2018-05-10T09:28:22.749Z,55.00
2018-05-10T09:30:51.097Z,52.50
2018-05-10T09:33:19.376Z,54.00
2018-05-10T09:35:47.656Z,55.20
2018-05-10T09:38:15.984Z,54.40
2018-05-10T09:40:44.317Z,54.30
2018-05-10T09:43:13.410Z,55.40
2018-05-10T09:45:41.693Z,55.30
2018-05-10T09:48:10.037Z,54.00
2018-05-10T09:50:38.373Z,53.90
2018-05-10T09:53:06.657Z,54.40
2018-05-10T09:55:35.055Z,54.90
2018-05-10T09:58:03.400Z,52.90
2018-05-10T10:00:31.683Z,52.90
2018-05-10T10:02:59.969Z,52.70
2018-05-10T10:05:28.304Z,53.00
2018-05-10T10:07:56.596Z,53.00
2018-05-10T10:10:25.083Z,52.80
2018-05-10T10:12:53.418Z,53.10
2018-05-10T10:15:22.513Z,52.30
2018-05-10T10:17:51.565Z,51.30
2018-05-10T10:20:19.848Z,51.30
2018-05-10T10:22:48.260Z,51.10
2018-05-10T10:25:16.626Z,52.80
2018-05-10T10:27:46.418Z,49.80
2018-05-10T10:30:15.541Z,50.90
2018-05-10T10:32:43.889Z,50.80
2018-05-10T10:35:12.173Z,50.50
2018-05-10T10:37:40.504Z,49.80
2018-05-10T10:40:09.622Z,49.80
2018-05-10T10:42:37.912Z,49.80
2018-05-10T10:45:06.252Z,50.60
2018-05-10T10:47:34.577Z,48.90
2018-05-10T10:50:03.626Z,49.70
2018-05-10T10:52:32.197Z,49.70
2018-05-10T10:55:00.477Z,49.10
2018-05-10T10:57:29.525Z,48.90
2018-05-10T10:59:57.939Z,48.80
2018-05-10T11:02:26.224Z,49.00
2018-05-10T11:04:55.328Z,49.00
2018-05-10T11:07:23.714Z,49.10
2018-05-10T11:09:52.033Z,49.30
2018-05-10T11:12:21.081Z,50.60
2018-05-10T11:14:49.504Z,50.60
2018-05-10T11:17:18.105Z,49.70
2018-05-10T11:19:46.415Z,49.00
2018-05-10T11:22:14.785Z,51.60
2018-05-10T11:24:43.397Z,50.10
2018-05-10T11:27:13.193Z,48.50
2018-05-10T11:29:41.473Z,48.50
2018-05-10T11:32:09.865Z,48.20
2018-05-10T11:34:38.145Z,47.50
2018-05-10T11:37:06.481Z,47.10
2018-05-10T11:39:34.853Z,46.80
2018-05-10T11:42:03.149Z,47.20
2018-05-10T11:44:31.494Z,47.40
2018-05-10T11:47:00.230Z,47.20
2018-05-10T11:49:28.525Z,45.30
2018-05-10T11:51:56.817Z,45.20
2018-05-10T11:54:26.744Z,45.70
2018-05-10T11:56:55.441Z,45.60
2018-05-10T11:59:23.728Z,45.10
2018-05-10T12:01:52.009Z,47.50
2018-05-10T12:04:20.337Z,46.50
2018-05-10T12:06:49.413Z,47.20
2018-05-10T12:09:17.762Z,47.10
2018-05-10T12:11:46.093Z,44.40
2018-05-10T12:14:14.382Z,46.40
2018-05-10T12:16:42.665Z,46.50
2018-05-10T12:19:11.068Z,45.60
2018-05-10T12:21:39.357Z,46.70
2018-05-10T12:24:07.748Z,46.30
2018-05-10T12:26:36.085Z,46.40
2018-05-10T12:29:04.630Z,45.90
2018-05-10T12:31:32.973Z,46.30
2018-05-10T12:34:01.320Z,46.20
2018-05-10T12:36:29.609Z,46.30
2018-05-10T12:38:57.936Z,45.30
2018-05-10T12:41:26.289Z,45.80
2018-05-10T12:43:55.486Z,45.80
2018-05-10T12:46:23.760Z,46.10
2018-05-10T12:48:52.106Z,46.10
2018-05-10T12:51:21.157Z,46.90
2018-05-10T12:53:49.485Z,46.90
2018-05-10T12:56:17.858Z,46.90
2018-05-10T12:58:46.116Z,45.10
2018-05-10T13:01:14.425Z,44.80
2018-05-10T13:03:42.709Z,45.80
2018-05-10T13:06:11.425Z,46.00
2018-05-10T13:08:39.710Z,47.60
2018-05-10T13:11:08.022Z,46.50
2018-05-10T13:13:36.365Z,44.90
2018-05-10T13:16:05.514Z,46.40
2018-05-10T13:18:34.561Z,44.50
2018-05-10T13:21:02.829Z,44.40
2018-05-10T13:23:31.114Z,45.00
2018-05-10T13:25:59.453Z,43.40
2018-05-10T13:28:27.826Z,42.90
2018-05-10T13:30:56.176Z,43.40
2018-05-10T13:33:25.239Z,43.10
2018-05-10T13:35:53.541Z,43.10
2018-05-10T13:38:21.871Z,42.20
2018-05-10T13:40:50.169Z,40.90
2018-05-10T13:43:18.457Z,40.70
2018-05-10T13:45:46.784Z,43.10
2018-05-10T13:48:15.165Z,44.50
2018-05-10T13:50:43.562Z,42.50
2018-05-10T13:53:11.837Z,43.10
2018-05-10T13:55:40.169Z,43.60
2018-05-10T13:58:08.693Z,43.10
2018-05-10T14:00:36.972Z,44.60
2018-05-10T14:03:05.588Z,43.60
2018-05-10T14:05:34.761Z,40.40
2018-05-10T14:08:03.141Z,40.40
2018-05-10T14:10:31.471Z,41.20
2018-05-10T14:12:59.756Z,40.60
2018-05-10T14:15:28.235Z,41.20
2018-05-10T14:17:56.591Z,41.40
2018-05-10T14:20:25.690Z,42.50
2018-05-10T14:22:54.036Z,42.50
2018-05-10T14:25:22.369Z,42.80
2018-05-10T14:27:50.678Z,43.00
2018-05-10T14:30:19.584Z,42.10
2018-05-10T14:32:48.854Z,41.30
2018-05-10T14:35:17.132Z,41.30
2018-05-10T14:37:45.417Z,41.10
2018-05-10T14:40:13.757Z,40.40
2018-05-10T14:42:42.098Z,41.80
2018-05-10T14:45:11.164Z,42.20
2018-05-10T14:47:39.529Z,42.10
2018-05-10T14:50:08.593Z,40.60
2018-05-10T14:52:36.876Z,40.60
2018-05-10T14:55:05.213Z,42.20
2018-05-10T14:57:33.508Z,40.70
2018-05-10T15:00:02.193Z,39.90
2018-05-10T15:02:30.473Z,40.70
2018-05-10T15:04:59.525Z,39.10
2018-05-10T15:07:27.849Z,39.10
2018-05-10T15:09:56.188Z,40.30
2018-05-10T15:12:24.526Z,39.90
2018-05-10T15:14:53.586Z,35.40
2018-05-10T15:17:21.930Z,35.30
2018-05-10T15:19:50.209Z,32.80
2018-05-10T15:22:18.489Z,32.50
2018-05-10T15:24:46.890Z,32.30
2018-05-10T15:27:15.933Z,30.50
2018-05-10T15:29:44.543Z,30.50
2018-05-10T15:32:12.835Z,30.00
2018-05-10T15:34:41.109Z,29.90
2018-05-10T15:37:09.449Z,29.40
2018-05-10T15:39:37.748Z,29.80
2018-05-10T15:42:06.166Z,28.90
2018-05-10T15:44:34.516Z,28.60
2018-05-10T15:47:02.808Z,28.40
2018-05-10T15:49:31.964Z,27.20
2018-05-10T15:52:00.988Z,27.20
2018-05-10T15:54:29.321Z,27.20
2018-05-10T15:56:57.830Z,27.50
2018-05-10T15:59:26.132Z,28.50
2018-05-10T16:01:54.405Z,26.90
2018-05-10T16:04:22.769Z,29.30
2018-05-10T16:06:51.142Z,29.50
2018-05-10T16:09:19.493Z,30.70
2018-05-10T16:11:48.877Z,33.20
2018-05-10T16:14:17.160Z,33.10
2018-05-10T16:16:45.437Z,34.20
2018-05-10T16:19:13.785Z,33.90
2018-05-10T16:21:42.193Z,33.10
2018-05-10T16:24:10.797Z,31.70
2018-05-10T16:26:39.085Z,29.10
2018-05-10T16:29:07.368Z,27.30
2018-05-10T16:31:35.711Z,27.10
2018-05-10T16:34:03.998Z,26.50
2018-05-10T16:36:32.329Z,29.50
2018-05-10T16:39:00.714Z,34.60
2018-05-10T16:41:29.049Z,38.00
2018-05-10T16:43:58.105Z,40.90
2018-05-10T16:46:26.394Z,40.90
2018-05-10T16:48:55.045Z,42.10
2018-05-10T16:51:23.341Z,43.50
2018-05-10T16:53:51.625Z,43.60
2018-05-10T16:56:19.976Z,43.70
2018-05-10T16:58:48.260Z,44.30
2018-05-10T17:01:16.970Z,45.10
2018-05-10T17:03:45.253Z,46.10
2018-05-10T17:06:13.554Z,47.60
2018-05-10T17:08:41.896Z,48.50
2018-05-10T17:11:10.278Z,49.00
2018-05-10T17:13:38.601Z,49.80
2018-05-10T17:16:06.881Z,50.40
2018-05-10T17:18:35.186Z,50.60
2018-05-10T17:21:03.514Z,51.50
2018-05-10T17:23:32.561Z,52.90
2018-05-10T17:26:00.842Z,52.90
2018-05-10T17:28:29.933Z,54.90
2018-05-10T17:30:59.741Z,54.40
2018-05-10T17:33:28.125Z,54.30
2018-05-10T17:35:56.579Z,54.70
2018-05-10T17:38:24.887Z,54.90
2018-05-10T17:40:53.217Z,55.90
2018-05-10T17:43:22.266Z,54.40
2018-05-10T17:45:50.909Z,54.30
2018-05-10T17:48:19.209Z,55.10
2018-05-10T17:50:47.488Z,56.50
2018-05-10T17:53:15.821Z,57.00
2018-05-10T17:55:44.160Z,57.70
2018-05-10T17:58:13.204Z,60.00
2018-05-10T18:00:41.609Z,59.60
2018-05-10T18:03:09.884Z,59.60
2018-05-10T18:05:38.984Z,61.50
2018-05-10T18:08:07.318Z,61.50
2018-05-10T18:10:36.878Z,61.70
2018-05-10T18:13:06.471Z,63.90
2018-05-10T18:15:36.416Z,65.20
2018-05-10T18:18:05.870Z,64.90
2018-05-10T18:20:34.302Z,64.90
2018-05-10T18:23:02.589Z,64.20
2018-05-10T18:25:30.913Z,64.30
2018-05-10T18:27:59.317Z,64.30
2018-05-10T18:30:27.613Z,64.90
2018-05-10T18:32:56.390Z,64.80
2018-05-10T18:35:24.761Z,65.70
2018-05-10T18:37:53.165Z,65.50
2018-05-10T18:40:21.490Z,65.30
2018-05-10T18:42:50.967Z,65.00
2018-05-10T18:45:19.380Z,64.90
2018-05-10T18:47:47.721Z,65.30
2018-05-10T18:50:16.053Z,65.10
2018-05-10T18:52:44.333Z,65.70
2018-05-10T18:55:13.720Z,66.10
2018-05-10T18:57:42.772Z,66.90
2018-05-10T19:00:11.153Z,66.90
2018-05-10T19:02:39.480Z,68.00
2018-05-10T19:05:07.861Z,67.00
2018-05-10T19:07:36.257Z,66.80
2018-05-10T19:10:04.543Z,67.10
2018-05-10T19:12:32.965Z,66.90
2018-05-10T19:15:01.261Z,68.00
2018-05-10T19:17:29.540Z,68.10
2018-05-10T19:19:57.872Z,67.80
2018-05-10T19:22:26.161Z,67.20
2018-05-10T19:24:54.485Z,68.50
2018-05-10T19:27:22.773Z,69.30
2018-05-10T19:29:51.110Z,69.70
2018-05-10T19:32:20.808Z,67.60
2018-05-10T19:34:49.122Z,64.40
2018-05-10T19:37:17.548Z,65.60
2018-05-10T19:39:46.746Z,65.10
2018-05-10T19:42:15.360Z,65.00
2018-05-10T19:44:43.858Z,64.80
2018-05-10T19:47:12.136Z,64.90
2018-05-10T19:49:41.249Z,67.40
2018-05-10T19:52:10.841Z,68.30
2018-05-10T19:54:39.233Z,68.30
2018-05-10T19:57:07.513Z,69.60
2018-05-10T19:59:36.160Z,71.10
2018-05-10T20:02:04.473Z,72.30
2018-05-10T20:04:32.753Z,71.90
2018-05-10T20:07:01.249Z,72.20
2018-05-10T20:09:29.529Z,71.90
2018-05-10T20:11:57.885Z,71.60
2018-05-10T20:14:26.213Z,71.70
2018-05-10T20:16:55.290Z,72.10
2018-05-10T20:19:23.613Z,72.10
2018-05-10T20:21:53.406Z,71.70
2018-05-10T20:24:21.690Z,71.60
2018-05-10T20:26:51.169Z,72.00
2018-05-10T20:29:19.453Z,71.90
2018-05-10T20:31:47.732Z,72.40
2018-05-10T20:34:16.477Z,73.00
2018-05-10T20:36:44.775Z,73.10
2018-05-10T20:39:13.065Z,73.50
2018-05-10T20:41:41.420Z,74.20
2018-05-10T20:44:09.819Z,74.70
2018-05-10T20:46:38.037Z,75.10
2018-05-10T20:49:07.085Z,76.20
2018-05-10T20:51:35.425Z,76.10
2018-05-10T20:54:03.824Z,76.40
2018-05-10T20:56:32.542Z,76.70
2018-05-10T20:59:00.829Z,77.50
2018-05-10T21:01:29.148Z,78.10
2018-05-10T21:03:57.485Z,78.00
2018-05-10T21:06:26.541Z,78.90
2018-05-10T21:08:54.897Z,78.90
2018-05-10T21:11:23.364Z,79.50
2018-05-10T21:13:51.644Z,79.90
2018-05-10T21:16:20.087Z,80.80
2018-05-10T21:18:48.420Z,81.50
2018-05-10T21:21:17.476Z,82.30
2018-05-10T21:23:45.773Z,82.30
2018-05-10T21:26:14.146Z,82.90
2018-05-10T21:28:42.480Z,83.50
2018-05-10T21:31:10.813Z,84.40
2018-05-10T21:33:39.153Z,85.40
2018-05-10T21:36:08.265Z,86.70
2018-05-10T21:38:36.892Z,86.70
2018-05-10T21:41:05.957Z,87.70
2018-05-10T21:43:34.272Z,87.70
2018-05-10T21:46:04.444Z,88.00
2018-05-10T21:48:33.500Z,87.60
2018-05-10T21:51:01.792Z,88.00
2018-05-10T21:53:30.236Z,88.20
2018-05-10T21:55:58.576Z,87.80
2018-05-10T21:58:27.636Z,87.90
2018-05-10T22:00:56.065Z,87.80
2018-05-10T22:03:24.357Z,88.20
2018-05-10T22:05:52.653Z,88.20
2018-05-10T22:08:21.000Z,87.90
2018-05-10T22:10:49.285Z,88.10
2018-05-10T22:13:19.138Z,88.70
2018-05-10T22:15:47.428Z,88.60
2018-05-10T22:18:15.820Z,88.70
2018-05-10T22:20:44.220Z,89.20
2018-05-10T22:23:12.556Z,88.50
2018-05-10T22:25:41.683Z,88.50
2018-05-10T22:28:10.781Z,88.70
2018-05-10T22:30:39.072Z,88.70
2018-05-10T22:33:07.415Z,89.30
2018-05-10T22:35:36.514Z,89.30
2018-05-10T22:38:04.801Z,89.30
2018-05-10T22:40:33.144Z,89.20
2018-05-10T22:43:01.483Z,89.40
2018-05-10T22:45:29.820Z,89.60
2018-05-10T22:47:58.183Z,89.80
2018-05-10T22:50:26.538Z,90.00
2018-05-10T22:52:54.853Z,90.10
2018-05-10T22:55:23.909Z,90.40
2018-05-10T22:57:52.328Z,90.40
2018-05-10T23:00:20.669Z,90.50
2018-05-10T23:02:49.781Z,90.70
2018-05-10T23:05:18.073Z,90.70
2018-05-10T23:07:46.365Z,90.80
2018-05-10T23:10:14.763Z,90.80
2018-05-10T23:12:43.164Z,90.70
2018-05-10T23:15:11.464Z,90.60
2018-05-10T23:17:39.807Z,90.90
2018-05-10T23:20:08.896Z,91.00
2018-05-10T23:22:37.277Z,90.90
2018-05-10T23:25:05.612Z,91.00
2018-05-10T23:27:33.913Z,91.40
2018-05-10T23:30:02.262Z,91.50
2018-05-10T23:32:30.600Z,91.40
2018-05-10T23:34:58.890Z,91.50
2018-05-10T23:37:27.225Z,91.40
2018-05-10T23:39:55.872Z,91.60
2018-05-10T23:42:24.161Z,91.80
2018-05-10T23:44:53.241Z,91.80
2018-05-10T23:47:21.581Z,91.70
2018-05-10T23:49:50.637Z,91.80
2018-05-10T23:52:18.983Z,91.80
2018-05-10T23:54:47.345Z,91.90
2018-05-10T23:57:15.636Z,92.10
2018-05-10T23:59:44.071Z,92.10
